Terminal Aerodrome Forecast
Issued by NWS

Home | Current Version | Previous Version | Text Only | Print | Product List | Glossary On
Versions: 1 2 3 4 5 6 7 8 9 10 11 12 13 14 15 16 17 18 19 20 21
000
FTUS43 KGRB 270500
TAFCWA
TAF
KCWA 270537Z 2706/2806 05003KT 2SM -SN BR OVC003
      TEMPO 2706/2710 1SM -SN BR
     FM271000 04005KT 1SM -SN BR OVC005
     FM271600 33007KT 3SM -SN BR BKN008 OVC020
     FM271900 31010G15KT 5SM -SN BKN025
     FM272100 29008KT P6SM SCT025 BKN070
     FM280000 28007KT P6SM SCT080
      AMD LTD TO CLD VIS AND WIND TIL 271200=

USA.gov is the U.S. government's official web portal to all federal, state and local government web resources and services.